createdAt,value
2019-04-11T00:01:38.728Z,7.80
2019-04-11T00:04:00.535Z,7.80
2019-04-11T00:06:29.747Z,7.70
2019-04-11T00:08:58.575Z,7.70
2019-04-11T00:11:28.143Z,7.70
2019-04-11T00:13:57.712Z,7.60
2019-04-11T00:16:26.461Z,7.50
2019-04-11T00:18:54.927Z,7.60
2019-04-11T00:21:24.506Z,7.50
2019-04-11T00:23:53.093Z,7.60
2019-04-11T00:26:22.214Z,7.60
2019-04-11T00:28:50.648Z,7.60
2019-04-11T00:31:19.101Z,7.50
2019-04-11T00:33:48.654Z,7.50
2019-04-11T00:36:17.163Z,7.50
2019-04-11T00:38:45.760Z,7.50
2019-04-11T00:41:15.415Z,7.50
2019-04-11T00:43:45.357Z,7.50
2019-04-11T00:46:14.193Z,7.50
2019-04-11T00:48:42.626Z,7.50
2019-04-11T00:51:11.907Z,7.50
2019-04-11T00:53:40.457Z,7.50
2019-04-11T00:56:09.731Z,7.50
2019-04-11T00:58:39.269Z,7.50
2019-04-11T01:01:07.713Z,7.50
2019-04-11T01:03:36.213Z,7.50
2019-04-11T01:06:05.724Z,7.40
2019-04-11T01:08:34.245Z,7.30
2019-04-11T01:11:03.603Z,7.30
2019-04-11T01:13:41.439Z,7.30
2019-04-11T01:16:21.803Z,7.30
2019-04-11T01:18:50.246Z,7.20
2019-04-11T01:21:19.945Z,7.20
2019-04-11T01:23:48.479Z,7.10
2019-04-11T01:26:17.034Z,7.00
2019-04-11T01:28:45.515Z,7.00
2019-04-11T01:31:15.670Z,7.00
2019-04-11T01:33:44.306Z,6.90
2019-04-11T01:36:13.706Z,6.90
2019-04-11T01:38:44.317Z,6.90
2019-04-11T01:41:12.801Z,6.80
2019-04-11T01:43:52.572Z,6.80
2019-04-11T01:46:11.461Z,6.80
2019-04-11T01:48:56.089Z,6.70
2019-04-11T01:51:25.415Z,6.70
2019-04-11T01:53:53.896Z,6.60
2019-04-11T01:56:23.200Z,6.70
2019-04-11T01:58:51.661Z,6.70
2019-04-11T02:01:30.622Z,6.60
2019-04-11T02:04:17.081Z,6.60
2019-04-11T02:06:45.897Z,6.60
2019-04-11T02:09:15.848Z,6.60
2019-04-11T02:11:45.607Z,6.50
2019-04-11T02:14:16.983Z,6.50
2019-04-11T02:16:45.326Z,6.50
2019-04-11T02:19:14.138Z,6.40
2019-04-11T02:21:42.770Z,6.30
2019-04-11T02:24:12.863Z,6.30
2019-04-11T02:26:45.241Z,6.20
2019-04-11T02:29:13.109Z,6.20
2019-04-11T02:31:42.414Z,6.20
2019-04-11T02:34:11.859Z,6.00
2019-04-11T02:36:42.794Z,6.10
2019-04-11T02:39:14.997Z,6.00
2019-04-11T02:41:42.188Z,5.90
2019-04-11T02:44:27.281Z,5.90
2019-04-11T02:46:48.422Z,5.80
2019-04-11T02:49:11.124Z,5.70
2019-04-11T02:51:39.628Z,5.70
2019-04-11T02:54:08.068Z,5.70
2019-04-11T02:56:36.846Z,5.60
2019-04-11T02:59:05.591Z,5.50
2019-04-11T03:01:35.867Z,5.50
2019-04-11T03:04:06.303Z,5.40
2019-04-11T03:06:35.433Z,5.40
2019-04-11T03:09:07.091Z,5.40
2019-04-11T03:11:36.099Z,5.30
2019-04-11T03:14:05.000Z,5.20
2019-04-11T03:16:46.095Z,5.20
2019-04-11T03:19:18.357Z,5.20
2019-04-11T03:21:39.128Z,5.20
2019-04-11T03:24:06.892Z,5.10
2019-04-11T03:26:35.561Z,5.10
2019-04-11T03:29:06.130Z,5.10
2019-04-11T03:32:13.823Z,5.00
2019-04-11T03:35:02.806Z,5.00
2019-04-11T03:37:18.672Z,4.90
2019-04-11T03:39:28.667Z,4.90
2019-04-11T03:41:56.618Z,4.90
2019-04-11T03:44:16.737Z,4.90
2019-04-11T03:46:52.471Z,4.90
2019-04-11T03:49:21.017Z,5.00
2019-04-11T03:51:41.408Z,4.80
2019-04-11T03:54:11.482Z,4.80
2019-04-11T03:56:41.340Z,4.90
2019-04-11T03:59:14.179Z,4.80
2019-04-11T04:01:42.464Z,4.70
2019-04-11T04:04:12.774Z,4.70
2019-04-11T04:06:43.263Z,4.60
2019-04-11T04:09:13.085Z,4.60
2019-04-11T04:11:46.905Z,4.60
2019-04-11T04:14:17.808Z,4.60
2019-04-11T04:16:54.809Z,4.50
2019-04-11T04:19:37.678Z,4.60
2019-04-11T04:22:13.396Z,4.60
2019-04-11T04:24:43.217Z,4.60
2019-04-11T04:27:13.155Z,4.60
2019-04-11T04:29:46.539Z,4.60
2019-04-11T04:32:12.208Z,4.60
2019-04-11T04:34:42.231Z,4.60
2019-04-11T04:37:12.006Z,4.70
2019-04-11T04:39:41.324Z,4.60
2019-04-11T04:42:19.477Z,4.60
2019-04-11T04:44:40.886Z,4.60
2019-04-11T04:47:20.934Z,4.60
2019-04-11T04:49:41.024Z,4.60
2019-04-11T04:52:13.707Z,4.60
2019-04-11T04:54:41.038Z,4.60
2019-04-11T04:57:12.912Z,4.70
2019-04-11T04:59:42.068Z,4.70
2019-04-11T05:02:11.057Z,4.70
2019-04-11T05:04:40.585Z,4.70
2019-04-11T05:07:09.655Z,4.60
2019-04-11T05:09:38.533Z,4.60
2019-04-11T05:12:07.308Z,4.60
2019-04-11T05:14:37.241Z,4.60
2019-04-11T05:17:06.718Z,4.60
2019-04-11T05:19:35.373Z,4.60
2019-04-11T05:22:03.808Z,4.70
2019-04-11T05:24:32.248Z,4.70
2019-04-11T05:27:00.922Z,4.80
2019-04-11T05:29:29.424Z,4.80
2019-04-11T05:31:58.935Z,4.90
2019-04-11T05:34:28.029Z,4.90
2019-04-11T05:36:57.624Z,4.90
2019-04-11T05:39:26.117Z,5.00
2019-04-11T05:41:54.577Z,5.00
2019-04-11T05:44:23.010Z,5.10
2019-04-11T05:46:56.270Z,5.10
2019-04-11T05:49:33.113Z,5.20
2019-04-11T05:52:01.924Z,5.20
2019-04-11T05:54:36.458Z,5.30
2019-04-11T05:57:05.004Z,5.30
2019-04-11T05:59:33.453Z,5.40
2019-04-11T06:02:07.343Z,5.50
2019-04-11T06:04:38.384Z,5.60
2019-04-11T06:07:25.160Z,5.70
2019-04-11T06:09:55.308Z,5.80
2019-04-11T06:12:37.915Z,6.00
2019-04-11T06:15:09.085Z,6.10
2019-04-11T06:17:38.553Z,6.20
2019-04-11T06:20:18.375Z,6.30
2019-04-11T06:22:48.461Z,6.40
2019-04-11T06:25:35.190Z,6.50
2019-04-11T06:28:06.108Z,6.70
2019-04-11T06:30:52.762Z,6.80
2019-04-11T06:33:25.347Z,6.90
2019-04-11T06:35:56.641Z,7.00
2019-04-11T06:38:32.645Z,7.10
2019-04-11T06:41:06.257Z,7.10
2019-04-11T06:43:38.956Z,7.20
2019-04-11T06:46:13.157Z,7.40
2019-04-11T06:48:49.633Z,7.50
2019-04-11T06:51:22.484Z,7.60
2019-04-11T06:54:08.808Z,7.60
2019-04-11T06:56:39.073Z,7.70
2019-04-11T06:59:10.097Z,8.00
2019-04-11T07:01:40.430Z,8.20
2019-04-11T07:04:11.422Z,8.40
2019-04-11T07:06:41.890Z,8.30
2019-04-11T07:09:30.943Z,8.30
2019-04-11T07:12:04.077Z,8.20
2019-04-11T07:14:35.364Z,8.50
2019-04-11T07:17:21.544Z,8.80
2019-04-11T07:20:10.814Z,9.00
2019-04-11T07:22:59.410Z,9.10
2019-04-11T07:25:30.994Z,9.20
2019-04-11T07:28:04.104Z,9.40
2019-04-11T07:30:50.188Z,9.70
2019-04-11T07:33:33.291Z,10.30
2019-04-11T07:36:21.046Z,10.50
2019-04-11T07:38:59.882Z,10.20
2019-04-11T07:41:39.427Z,10.70
2019-04-11T07:44:30.156Z,10.90
2019-04-11T07:47:21.670Z,11.70
2019-04-11T07:49:52.523Z,13.00
2019-04-11T07:52:21.917Z,13.50
2019-04-11T07:54:51.407Z,14.40
2019-04-11T07:57:22.637Z,15.20
2019-04-11T08:00:09.176Z,16.20
2019-04-11T08:02:55.162Z,15.60
2019-04-11T08:05:44.608Z,15.70
2019-04-11T08:08:30.266Z,16.20
2019-04-11T08:11:07.724Z,16.30
2019-04-11T08:13:56.329Z,16.40
2019-04-11T08:16:42.662Z,16.40
2019-04-11T08:19:24.805Z,16.60
2019-04-11T08:22:14.783Z,16.50
2019-04-11T08:25:01.351Z,16.10
2019-04-11T08:27:31.754Z,16.90
2019-04-11T08:30:02.669Z,17.60
2019-04-11T08:32:38.680Z,18.30
2019-04-11T08:35:24.696Z,18.50
2019-04-11T08:38:02.372Z,18.60
2019-04-11T08:40:33.540Z,18.30
2019-04-11T08:43:06.575Z,16.80
2019-04-11T08:45:38.129Z,16.00
2019-04-11T08:48:11.248Z,16.20
2019-04-11T08:50:44.928Z,16.80
2019-04-11T08:53:18.607Z,16.90
2019-04-11T08:55:55.732Z,16.90
2019-04-11T08:58:25.136Z,16.50
2019-04-11T09:01:00.205Z,16.50
2019-04-11T09:03:38.074Z,17.30
2019-04-11T09:06:10.902Z,18.60
2019-04-11T09:08:44.801Z,18.00
2019-04-11T09:11:20.986Z,18.40
2019-04-11T09:14:08.150Z,19.60
2019-04-11T09:16:39.561Z,19.80
2019-04-11T09:19:27.683Z,18.70
2019-04-11T09:22:15.033Z,17.50
2019-04-11T09:24:57.115Z,16.50
2019-04-11T09:27:45.335Z,17.00
2019-04-11T09:30:22.948Z,17.40
2019-04-11T09:33:09.330Z,17.10
2019-04-11T09:35:39.542Z,16.00
2019-04-11T09:38:10.467Z,15.60
2019-04-11T09:40:57.044Z,15.80
2019-04-11T09:43:28.238Z,15.90
2019-04-11T09:46:14.495Z,16.30
2019-04-11T09:48:44.600Z,16.60
2019-04-11T09:51:31.778Z,16.50
2019-04-11T09:54:17.591Z,16.30
2019-04-11T09:57:02.706Z,16.00
2019-04-11T09:59:33.466Z,16.60
2019-04-11T10:02:12.757Z,17.80
2019-04-11T10:04:43.788Z,18.10
2019-04-11T10:07:31.872Z,17.40
2019-04-11T10:10:08.647Z,17.70
2019-04-11T10:12:42.428Z,19.10
2019-04-11T10:15:13.424Z,19.70
2019-04-11T10:18:00.951Z,19.50
2019-04-11T10:20:30.730Z,19.30
2019-04-11T10:23:02.113Z,18.60
2019-04-11T10:25:32.684Z,18.90
2019-04-11T10:28:19.592Z,20.00
2019-04-11T10:30:50.401Z,20.80
2019-04-11T10:33:37.220Z,21.80
2019-04-11T10:36:23.401Z,22.50
2019-04-11T10:38:57.174Z,21.90
2019-04-11T10:41:36.304Z,22.50
2019-04-11T10:44:05.577Z,22.90
2019-04-11T10:46:53.508Z,23.30
2019-04-11T10:49:38.717Z,22.60
2019-04-11T10:52:15.104Z,23.00
2019-04-11T10:54:45.424Z,23.40
2019-04-11T10:57:18.523Z,23.70
2019-04-11T10:59:51.158Z,23.60
2019-04-11T11:02:35.947Z,23.60
2019-04-11T11:05:07.262Z,23.60
2019-04-11T11:07:35.214Z,23.50
2019-04-11T11:10:07.208Z,22.00
2019-04-11T11:12:37.701Z,21.90
2019-04-11T11:15:09.271Z,22.60
2019-04-11T11:18:25.245Z,23.20
2019-04-11T11:20:48.113Z,23.70
2019-04-11T11:23:28.902Z,24.40
2019-04-11T11:26:02.811Z,24.60
2019-04-11T11:28:51.079Z,24.50
2019-04-11T11:31:30.540Z,24.70
2019-04-11T11:33:58.987Z,24.60
2019-04-11T11:36:32.101Z,24.50
2019-04-11T11:39:17.459Z,24.40
2019-04-11T11:42:04.112Z,24.30
2019-04-11T11:44:37.131Z,24.40
2019-04-11T11:47:33.121Z,24.20
2019-04-11T11:50:04.539Z,24.00
2019-04-11T11:53:13.160Z,24.00
2019-04-11T11:56:02.079Z,24.00
2019-04-11T11:58:53.445Z,24.00
2019-04-11T12:01:19.893Z,24.00
2019-04-11T12:04:19.458Z,24.10
2019-04-11T12:06:58.852Z,24.00
2019-04-11T12:09:43.191Z,24.10
2019-04-11T12:12:30.217Z,24.40
2019-04-11T12:15:15.958Z,24.40
2019-04-11T12:17:57.982Z,24.30
2019-04-11T12:20:42.811Z,24.60
2019-04-11T12:23:24.212Z,24.80
2019-04-11T12:28:57.510Z,25.10
2019-04-11T12:31:37.281Z,25.30
2019-04-11T12:34:27.150Z,25.50
2019-04-11T12:36:58.003Z,25.50
2019-04-11T12:39:57.147Z,25.70
2019-04-11T12:42:27.721Z,26.20
2019-04-11T12:45:15.456Z,26.60
2019-04-11T12:47:49.278Z,26.60
2019-04-11T12:50:42.356Z,26.00
2019-04-11T12:53:14.273Z,26.10
2019-04-11T12:55:50.257Z,26.20
2019-04-11T12:58:27.426Z,26.50
2019-04-11T13:01:06.862Z,26.50
2019-04-11T13:03:52.964Z,26.60
2019-04-11T13:06:35.803Z,26.80
2019-04-11T13:09:24.939Z,27.10
2019-04-11T13:12:01.037Z,27.00
2019-04-11T13:14:31.163Z,27.10
2019-04-11T13:17:03.959Z,27.40
2019-04-11T13:20:04.504Z,27.40
2019-04-11T13:22:28.120Z,26.90
2019-04-11T13:25:07.380Z,27.10
2019-04-11T13:27:43.500Z,27.10
2019-04-11T13:30:28.426Z,27.30
2019-04-11T13:32:57.856Z,27.00
2019-04-11T13:35:44.391Z,27.10
2019-04-11T13:38:23.747Z,27.10
2019-04-11T13:41:02.691Z,27.30
2019-04-11T13:43:45.339Z,27.10
2019-04-11T13:46:15.491Z,26.10
2019-04-11T13:48:48.398Z,25.40
2019-04-11T13:51:30.811Z,24.90
2019-04-11T13:54:16.949Z,24.80
2019-04-11T13:57:03.179Z,25.10
2019-04-11T13:59:36.063Z,25.10
2019-04-11T14:02:16.541Z,25.00
2019-04-11T14:04:54.540Z,24.80
2019-04-11T14:07:30.569Z,24.20
2019-04-11T14:10:01.350Z,23.80
2019-04-11T14:12:29.634Z,23.90
2019-04-11T14:14:59.720Z,23.80
2019-04-11T14:17:42.405Z,23.40
2019-04-11T14:20:29.250Z,23.40
2019-04-11T14:23:02.987Z,23.20
2019-04-11T14:25:48.617Z,23.40
2019-04-11T14:28:18.705Z,23.10
2019-04-11T14:31:06.481Z,22.80
2019-04-11T14:33:39.327Z,22.50
2019-04-11T14:36:09.403Z,22.30
2019-04-11T14:38:46.541Z,21.90
2019-04-11T14:41:16.937Z,21.60
2019-04-11T14:43:49.935Z,21.40
2019-04-11T14:46:25.479Z,21.40
2019-04-11T14:48:55.793Z,21.20
2019-04-11T14:51:28.323Z,21.10
2019-04-11T14:54:01.037Z,21.10
2019-04-11T14:56:33.888Z,21.00
2019-04-11T14:59:23.985Z,20.70
2019-04-11T15:01:57.715Z,20.50
2019-04-11T15:04:30.835Z,20.60
2019-04-11T15:07:00.323Z,20.50
2019-04-11T15:09:30.429Z,20.20
2019-04-11T15:12:00.511Z,20.20
2019-04-11T15:14:39.493Z,20.10
2019-04-11T15:17:09.583Z,19.90
2019-04-11T15:19:39.845Z,19.80
2019-04-11T15:22:26.330Z,19.70
2019-04-11T15:24:59.255Z,19.60
2019-04-11T15:27:45.068Z,19.50
2019-04-11T15:30:30.442Z,19.30
2019-04-11T15:33:16.560Z,19.10
2019-04-11T15:35:46.657Z,18.90
2019-04-11T15:38:36.950Z,18.70
2019-04-11T15:41:07.037Z,18.60
2019-04-11T15:43:45.607Z,18.50
2019-04-11T15:46:18.386Z,18.50
2019-04-11T15:48:48.529Z,18.30
2019-04-11T15:51:35.050Z,18.30
2019-04-11T15:54:06.883Z,18.20
2019-04-11T15:56:41.881Z,18.20
2019-04-11T15:59:13.143Z,18.10
2019-04-11T16:01:43.757Z,18.10
2019-04-11T16:04:13.823Z,18.00
2019-04-11T16:07:01.769Z,17.80
2019-04-11T16:09:30.270Z,17.70
2019-04-11T16:12:03.063Z,17.50
2019-04-11T16:14:31.531Z,17.40
2019-04-11T16:17:05.319Z,17.20
2019-04-11T16:19:47.589Z,16.90
2019-04-11T16:22:32.216Z,16.70
2019-04-11T16:25:02.355Z,16.40
2019-04-11T16:27:50.329Z,16.10
2019-04-11T16:30:23.094Z,15.90
2019-04-11T16:32:53.170Z,15.80
2019-04-11T16:35:33.155Z,15.60
2019-04-11T16:38:10.585Z,15.40
2019-04-11T16:40:57.615Z,15.20
2019-04-11T16:43:26.280Z,15.10
2019-04-11T16:46:12.724Z,15.00
2019-04-11T16:48:41.238Z,14.90
2019-04-11T16:51:09.675Z,14.80
2019-04-11T16:53:38.196Z,14.70
2019-04-11T16:56:06.779Z,14.70
2019-04-11T16:58:35.288Z,14.70
2019-04-11T17:01:03.800Z,14.60
2019-04-11T17:03:32.236Z,14.40
2019-04-11T17:08:57.790Z,14.10
2019-04-11T17:11:27.082Z,14.10
2019-04-11T17:13:57.341Z,14.00
2019-04-11T17:16:30.116Z,13.80
2019-04-11T17:18:56.672Z,13.70
2019-04-11T17:21:25.156Z,13.50
2019-04-11T17:23:53.673Z,13.30
2019-04-11T17:26:23.304Z,13.30
2019-04-11T17:28:54.347Z,13.20
2019-04-11T17:31:25.749Z,13.10
2019-04-11T17:33:52.663Z,13.00
2019-04-11T17:36:21.217Z,12.90
2019-04-11T17:38:49.712Z,12.80
2019-04-11T17:41:18.178Z,12.80
2019-04-11T17:43:51.607Z,12.70
2019-04-11T17:49:08.064Z,12.40
2019-04-11T17:51:38.406Z,12.30
2019-04-11T17:54:07.032Z,12.10
2019-04-11T17:56:35.498Z,12.10
2019-04-11T17:59:04.002Z,11.90
2019-04-11T18:01:33.554Z,11.80
2019-04-11T18:04:02.043Z,11.70
2019-04-11T18:06:30.471Z,11.60
2019-04-11T18:08:58.937Z,11.60
2019-04-11T18:11:27.376Z,11.50
2019-04-11T18:13:55.817Z,11.40
2019-04-11T18:16:24.274Z,11.40
2019-04-11T18:18:52.713Z,11.30
2019-04-11T18:21:21.232Z,11.20
2019-04-11T18:23:50.068Z,11.10
2019-04-11T18:26:21.459Z,11.10
2019-04-11T18:28:51.830Z,11.00
2019-04-11T18:31:19.758Z,10.80
2019-04-11T18:33:48.224Z,10.80
2019-04-11T18:36:16.968Z,10.80
2019-04-11T18:38:45.544Z,10.70
2019-04-11T18:41:14.000Z,10.70
2019-04-11T18:43:44.866Z,10.60
2019-04-11T18:46:12.932Z,10.50
2019-04-11T18:48:41.370Z,10.40
2019-04-11T18:51:10.085Z,10.20
2019-04-11T18:53:38.540Z,10.20
2019-04-11T18:56:06.992Z,10.10
2019-04-11T18:58:37.228Z,10.00
2019-04-11T19:01:09.214Z,10.00
2019-04-11T19:03:41.105Z,9.90
2019-04-11T19:06:07.736Z,9.80
2019-04-11T19:08:36.220Z,9.80
2019-04-11T19:11:04.697Z,9.80
2019-04-11T19:13:33.133Z,9.70
2019-04-11T19:16:01.601Z,9.70
2019-04-11T19:18:30.037Z,9.70
2019-04-11T19:20:58.480Z,9.60
2019-04-11T19:23:26.938Z,9.50
2019-04-11T19:25:55.375Z,9.50
2019-04-11T19:28:25.250Z,9.50
2019-04-11T19:30:56.800Z,9.40
2019-04-11T19:33:24.543Z,9.40
2019-04-11T19:35:52.997Z,9.40
2019-04-11T19:38:25.818Z,9.40
2019-04-11T19:40:55.605Z,9.30
2019-04-11T19:43:24.333Z,9.20
2019-04-11T19:45:52.763Z,9.20
2019-04-11T19:48:22.671Z,9.30
2019-04-11T19:50:51.479Z,9.30
2019-04-11T19:53:20.223Z,9.20
2019-04-11T19:55:52.339Z,9.20
2019-04-11T19:58:28.229Z,9.10
2019-04-11T20:00:56.807Z,9.00
2019-04-11T20:03:25.243Z,9.00
2019-04-11T20:05:55.614Z,9.00
2019-04-11T20:08:24.151Z,8.90
2019-04-11T20:10:52.602Z,8.80
2019-04-11T20:13:21.375Z,8.80
2019-04-11T20:15:50.674Z,8.80
2019-04-11T20:18:22.203Z,8.70
2019-04-11T20:20:52.063Z,8.70
2019-04-11T20:23:19.603Z,8.60
2019-04-11T20:25:49.950Z,8.60
2019-04-11T20:28:19.861Z,8.60
2019-04-11T20:30:48.564Z,8.50
2019-04-11T20:33:26.590Z,8.50
2019-04-11T20:35:47.272Z,8.50
2019-04-11T20:38:16.668Z,8.50
2019-04-11T20:40:45.190Z,8.50
2019-04-11T20:43:13.634Z,8.50
2019-04-11T20:45:43.064Z,8.50
2019-04-11T20:48:17.488Z,8.50
2019-04-11T20:50:46.008Z,8.50
2019-04-11T20:53:14.464Z,8.40
2019-04-11T20:55:42.961Z,8.40
2019-04-11T20:58:11.564Z,8.30
2019-04-11T21:00:50.264Z,8.30
2019-04-11T21:03:10.631Z,8.30
2019-04-11T21:05:39.075Z,8.30
2019-04-11T21:08:07.531Z,8.40
2019-04-11T21:10:36.001Z,8.30
2019-04-11T21:13:06.912Z,8.20
2019-04-11T21:15:34.716Z,8.30
2019-04-11T21:18:03.178Z,8.20
2019-04-11T21:20:31.634Z,8.20
2019-04-11T21:23:00.080Z,8.20
2019-04-11T21:25:29.136Z,8.20
2019-04-11T21:27:59.127Z,8.20
2019-04-11T21:30:27.959Z,8.10
2019-04-11T21:32:58.032Z,8.00
2019-04-11T21:35:26.538Z,7.90
2019-04-11T21:37:57.896Z,7.80
2019-04-11T21:40:25.892Z,7.90
2019-04-11T21:42:54.334Z,7.80
2019-04-11T21:45:22.767Z,7.90
2019-04-11T21:47:51.274Z,7.90
2019-04-11T21:50:19.711Z,7.90
2019-04-11T21:52:48.140Z,7.80
2019-04-11T21:55:16.588Z,7.80
2019-04-11T21:57:48.579Z,7.80
2019-04-11T22:00:22.494Z,7.70
2019-04-11T22:02:52.004Z,7.70
2019-04-11T22:05:21.080Z,7.60
2019-04-11T22:07:49.612Z,7.60
2019-04-11T22:10:18.121Z,7.60
2019-04-11T22:12:46.641Z,7.60
2019-04-11T22:15:15.151Z,7.60
2019-04-11T22:17:45.535Z,7.60
2019-04-11T22:20:16.527Z,7.60
2019-04-11T22:22:44.319Z,7.60
2019-04-11T22:25:12.823Z,7.60
2019-04-11T22:27:43.523Z,7.60
2019-04-11T22:30:12.740Z,7.60
2019-04-11T22:32:42.839Z,7.60
2019-04-11T22:35:11.342Z,7.50
2019-04-11T22:37:39.769Z,7.50
2019-04-11T22:40:08.380Z,7.50
2019-04-11T22:42:36.811Z,7.40
2019-04-11T22:45:05.883Z,7.40
2019-04-11T22:47:35.933Z,7.40
2019-04-11T22:50:09.865Z,7.30
2019-04-11T22:52:36.370Z,7.20
2019-04-11T22:55:06.403Z,7.20
2019-04-11T22:57:34.853Z,7.20
2019-04-11T23:00:04.828Z,7.20
2019-04-11T23:02:50.966Z,7.20
2019-04-11T23:05:19.403Z,7.20
2019-04-11T23:07:48.419Z,7.20
2019-04-11T23:10:17.748Z,7.20
2019-04-11T23:12:46.546Z,7.20
2019-04-11T23:15:15.657Z,7.20
2019-04-11T23:17:44.770Z,7.30
2019-04-11T23:20:14.263Z,7.30
2019-04-11T23:22:43.549Z,7.20
2019-04-11T23:25:12.030Z,7.20
2019-04-11T23:27:40.484Z,7.20
2019-04-11T23:30:09.822Z,7.30
2019-04-11T23:32:38.264Z,7.30
2019-04-11T23:35:06.740Z,7.20
2019-04-11T23:37:36.889Z,7.20
2019-04-11T23:40:06.181Z,7.20
2019-04-11T23:42:34.616Z,7.20
2019-04-11T23:45:03.495Z,7.20
2019-04-11T23:47:31.925Z,7.20
2019-04-11T23:50:00.394Z,7.20
2019-04-11T23:52:28.831Z,7.20
2019-04-11T23:54:58.207Z,7.30
2019-04-11T23:57:28.911Z,7.20
2019-04-11T23:59:59.800Z,7.20
